createdAt,value
2023-03-17T00:00:07.364Z,985.11
2023-03-17T00:01:07.350Z,985.11
2023-03-17T00:02:07.435Z,985.11
2023-03-17T00:03:07.348Z,985.10
2023-03-17T00:04:07.325Z,985.09
2023-03-17T00:05:07.324Z,985.08
2023-03-17T00:06:07.320Z,985.07
2023-03-17T00:07:07.291Z,985.05
2023-03-17T00:08:07.295Z,985.03
2023-03-17T00:09:07.270Z,985.03
2023-03-17T00:10:07.277Z,985.03
2023-03-17T00:11:07.267Z,985.04
2023-03-17T00:12:07.288Z,985.05
2023-03-17T00:13:07.254Z,985.06
2023-03-17T00:14:07.240Z,985.06
2023-03-17T00:15:07.216Z,985.05
2023-03-17T00:16:07.338Z,985.06
2023-03-17T00:17:07.204Z,985.06
2023-03-17T00:18:07.205Z,985.08
2023-03-17T00:19:07.177Z,985.07
2023-03-17T00:20:07.160Z,985.06
2023-03-17T00:21:07.152Z,985.05
2023-03-17T00:22:07.150Z,985.07
2023-03-17T00:23:07.142Z,985.08
2023-03-17T00:24:07.157Z,985.10
2023-03-17T00:25:07.150Z,985.11
2023-03-17T00:26:07.138Z,985.12
2023-03-17T00:27:07.102Z,985.13
2023-03-17T00:28:07.109Z,985.12
2023-03-17T00:29:07.080Z,985.11
2023-03-17T00:30:07.108Z,985.10
2023-03-17T00:31:07.102Z,985.09
2023-03-17T00:32:07.045Z,985.08
2023-03-17T00:33:07.046Z,985.07
2023-03-17T00:34:07.032Z,985.08
2023-03-17T00:35:07.018Z,985.10
2023-03-17T00:36:07.094Z,985.12
2023-03-17T00:37:06.989Z,985.11
2023-03-17T00:38:07.000Z,985.09
2023-03-17T00:39:06.972Z,985.07
2023-03-17T00:40:06.962Z,985.04
2023-03-17T00:41:06.968Z,985.04
2023-03-17T00:42:07.022Z,985.04
2023-03-17T00:43:06.924Z,985.05
2023-03-17T00:44:06.909Z,985.06
2023-03-17T00:45:06.900Z,985.05
2023-03-17T00:46:06.889Z,985.04
2023-03-17T00:47:06.912Z,985.03
2023-03-17T00:48:06.881Z,985.03
2023-03-17T00:49:06.860Z,985.01
2023-03-17T00:50:06.872Z,985.00
2023-03-17T00:51:06.848Z,985.00
2023-03-17T00:52:06.864Z,984.99
2023-03-17T00:53:06.841Z,984.98
2023-03-17T00:54:06.843Z,984.98
2023-03-17T00:55:06.834Z,984.97
2023-03-17T00:56:06.814Z,984.95
2023-03-17T00:57:06.796Z,984.93
2023-03-17T00:58:06.794Z,984.92
2023-03-17T00:59:06.752Z,984.92
2023-03-17T01:00:06.771Z,984.90
2023-03-17T01:01:06.786Z,984.88
2023-03-17T01:02:06.798Z,984.85
2023-03-17T01:03:06.756Z,984.83
2023-03-17T01:04:06.706Z,984.80
2023-03-17T01:05:07.104Z,984.77
2023-03-17T01:06:06.717Z,984.73
2023-03-17T01:07:06.688Z,984.70
2023-03-17T01:08:06.697Z,984.69
2023-03-17T01:09:06.696Z,984.70
2023-03-17T01:10:06.679Z,984.72
2023-03-17T01:11:06.651Z,984.74
2023-03-17T01:12:06.633Z,984.72
2023-03-17T01:13:06.623Z,984.70
2023-03-17T01:14:06.660Z,984.66
2023-03-17T01:15:06.613Z,984.62
2023-03-17T01:16:06.647Z,984.60
2023-03-17T01:17:06.605Z,984.61
2023-03-17T01:18:06.599Z,984.61
2023-03-17T01:19:06.576Z,984.62
2023-03-17T01:20:06.598Z,984.63
2023-03-17T01:21:06.557Z,984.63
2023-03-17T01:22:06.533Z,984.62
2023-03-17T01:23:06.513Z,984.59
2023-03-17T01:24:06.516Z,984.56
2023-03-17T01:25:07.070Z,984.53
2023-03-17T01:26:06.521Z,984.49
2023-03-17T01:27:06.478Z,984.47
2023-03-17T01:28:06.489Z,984.46
2023-03-17T01:29:06.528Z,984.47
2023-03-17T01:30:06.467Z,984.48
2023-03-17T01:31:06.499Z,984.49
2023-03-17T01:32:06.457Z,984.48
2023-03-17T01:33:06.458Z,984.47
2023-03-17T01:34:06.498Z,984.47
2023-03-17T01:35:06.421Z,984.47
2023-03-17T01:36:06.538Z,984.49
2023-03-17T01:37:06.390Z,984.51
2023-03-17T01:38:06.418Z,984.51
2023-03-17T01:39:06.369Z,984.50
2023-03-17T01:40:06.360Z,984.48
2023-03-17T01:41:06.337Z,984.44
2023-03-17T01:42:06.361Z,984.41
2023-03-17T01:43:06.334Z,984.40
2023-03-17T01:44:06.309Z,984.40
2023-03-17T01:45:06.318Z,984.40
2023-03-17T01:46:06.320Z,984.39
2023-03-17T01:47:06.792Z,984.38
2023-03-17T01:48:06.278Z,984.35
2023-03-17T01:49:06.295Z,984.35
2023-03-17T01:50:06.302Z,984.35
2023-03-17T01:51:06.261Z,984.35
2023-03-17T01:52:06.254Z,984.37
2023-03-17T01:53:06.265Z,984.38
2023-03-17T01:54:06.212Z,984.38
2023-03-17T01:55:06.204Z,984.38
2023-03-17T01:56:06.192Z,984.37
2023-03-17T01:57:06.176Z,984.37
2023-03-17T01:58:06.165Z,984.36
2023-03-17T01:59:06.429Z,984.35
2023-03-17T02:00:06.164Z,984.34
2023-03-17T02:01:06.177Z,984.30
2023-03-17T02:02:06.155Z,984.26
2023-03-17T02:03:06.135Z,984.21
2023-03-17T02:04:06.171Z,984.22
2023-03-17T02:05:06.173Z,984.24
2023-03-17T02:06:06.102Z,984.26
2023-03-17T02:07:06.089Z,984.28
2023-03-17T02:08:06.089Z,984.28
2023-03-17T02:09:06.072Z,984.27
2023-03-17T02:10:06.057Z,984.27
2023-03-17T02:11:06.134Z,984.26
2023-03-17T02:12:06.036Z,984.26
2023-03-17T02:13:06.037Z,984.24
2023-03-17T02:14:06.027Z,984.23
2023-03-17T02:15:06.021Z,984.21
2023-03-17T02:16:06.001Z,984.20
2023-03-17T02:17:06.030Z,984.20
2023-03-17T02:18:05.991Z,984.18
2023-03-17T02:19:05.963Z,984.16
2023-03-17T02:20:05.957Z,984.12
2023-03-17T02:21:05.942Z,984.08
2023-03-17T02:22:05.949Z,984.07
2023-03-17T02:23:05.957Z,984.09
2023-03-17T02:24:05.900Z,984.11
2023-03-17T02:25:05.900Z,984.15
2023-03-17T02:26:05.946Z,984.16
2023-03-17T02:27:05.901Z,984.17
2023-03-17T02:28:05.873Z,984.17
2023-03-17T02:29:05.931Z,984.14
2023-03-17T02:30:05.858Z,984.12
2023-03-17T02:31:05.901Z,984.09
2023-03-17T02:32:05.883Z,984.06
2023-03-17T02:33:05.944Z,984.04
2023-03-17T02:34:05.822Z,984.04
2023-03-17T02:35:05.829Z,984.05
2023-03-17T02:36:05.835Z,984.04
2023-03-17T02:37:05.826Z,984.03
2023-03-17T02:38:05.766Z,984.02
2023-03-17T02:39:05.754Z,984.02
2023-03-17T02:40:05.777Z,984.03
2023-03-17T02:41:05.773Z,984.04
2023-03-17T02:42:05.755Z,984.03
2023-03-17T02:43:05.776Z,984.02
2023-03-17T02:44:05.715Z,984.00
2023-03-17T02:45:05.719Z,983.98
2023-03-17T02:46:05.824Z,983.97
2023-03-17T02:47:05.721Z,983.98
2023-03-17T02:48:05.683Z,983.97
2023-03-17T02:49:05.675Z,983.96
2023-03-17T02:50:05.694Z,983.95
2023-03-17T02:51:05.655Z,983.94
2023-03-17T02:52:05.653Z,983.95
2023-03-17T02:53:05.632Z,983.95
2023-03-17T02:54:05.611Z,983.96
2023-03-17T02:55:05.614Z,983.95
2023-03-17T02:56:05.655Z,983.93
2023-03-17T02:57:05.618Z,983.92
2023-03-17T02:58:05.575Z,983.90
2023-03-17T02:59:05.584Z,983.87
2023-03-17T03:00:05.574Z,983.87
2023-03-17T03:01:05.656Z,983.86
2023-03-17T03:02:05.576Z,983.84
2023-03-17T03:03:05.544Z,983.84
2023-03-17T03:04:05.521Z,983.84
2023-03-17T03:05:05.517Z,983.84
2023-03-17T03:06:05.485Z,983.82
2023-03-17T03:07:05.496Z,983.81
2023-03-17T03:08:05.490Z,983.80
2023-03-17T03:09:05.463Z,983.80
2023-03-17T03:10:05.526Z,983.78
2023-03-17T03:11:05.463Z,983.75
2023-03-17T03:12:05.441Z,983.72
2023-03-17T03:13:05.461Z,983.71
2023-03-17T03:14:05.421Z,983.70
2023-03-17T03:15:05.509Z,983.71
2023-03-17T03:16:05.447Z,983.75
2023-03-17T03:17:05.415Z,983.77
2023-03-17T03:18:05.385Z,983.77
2023-03-17T03:19:05.395Z,983.78
2023-03-17T03:20:05.380Z,983.79
2023-03-17T03:21:05.344Z,983.80
2023-03-17T03:22:05.352Z,983.83
2023-03-17T03:23:05.325Z,983.83
2023-03-17T03:24:05.338Z,983.82
2023-03-17T03:25:05.339Z,983.80
2023-03-17T03:26:05.336Z,983.77
2023-03-17T03:27:05.322Z,983.76
2023-03-17T03:28:05.294Z,983.76
2023-03-17T03:29:05.288Z,983.75
2023-03-17T03:30:05.500Z,983.75
2023-03-17T03:31:05.261Z,983.73
2023-03-17T03:32:05.246Z,983.72
2023-03-17T03:33:05.316Z,983.70
2023-03-17T03:34:05.221Z,983.69
2023-03-17T03:35:05.307Z,983.70
2023-03-17T03:36:05.301Z,983.72
2023-03-17T03:37:05.184Z,983.74
2023-03-17T03:38:05.184Z,983.75
2023-03-17T03:39:05.183Z,983.76
2023-03-17T03:40:05.179Z,983.77
2023-03-17T03:41:05.167Z,983.76
2023-03-17T03:42:05.174Z,983.74
2023-03-17T03:43:19.880Z,983.72
2023-03-17T03:44:05.144Z,983.70
2023-03-17T03:45:05.152Z,983.71
2023-03-17T03:46:05.129Z,983.71
2023-03-17T03:47:05.089Z,983.72
2023-03-17T03:48:05.096Z,983.73
2023-03-17T03:49:05.050Z,983.73
2023-03-17T03:50:05.062Z,983.73
2023-03-17T03:51:05.039Z,983.74
2023-03-17T03:52:05.045Z,983.74
2023-03-17T03:53:05.020Z,983.74
2023-03-17T03:54:05.263Z,983.75
2023-03-17T03:55:04.996Z,983.77
2023-03-17T03:56:04.987Z,983.80
2023-03-17T03:57:04.978Z,983.84
2023-03-17T03:58:04.974Z,983.87
2023-03-17T03:59:04.962Z,983.88
2023-03-17T04:00:04.988Z,983.86
2023-03-17T04:01:04.929Z,983.83
2023-03-17T04:02:04.964Z,983.77
2023-03-17T04:03:05.014Z,983.69
2023-03-17T04:04:04.937Z,983.66
2023-03-17T04:05:04.960Z,983.65
2023-03-17T04:06:04.944Z,983.66
2023-03-17T04:07:04.909Z,983.70
2023-03-17T04:08:04.896Z,983.72
2023-03-17T04:09:04.871Z,983.73
2023-03-17T04:10:04.855Z,983.73
2023-03-17T04:11:04.847Z,983.74
2023-03-17T04:12:04.855Z,983.75
2023-03-17T04:13:04.816Z,983.75
2023-03-17T04:14:04.811Z,983.75
2023-03-17T04:15:04.796Z,983.75
2023-03-17T04:16:04.840Z,983.74
2023-03-17T04:17:04.787Z,983.71
2023-03-17T04:18:04.786Z,983.68
2023-03-17T04:19:04.799Z,983.68
2023-03-17T04:20:04.807Z,983.70
2023-03-17T04:21:04.739Z,983.72
2023-03-17T04:22:04.733Z,983.71
2023-03-17T04:23:04.711Z,983.69
2023-03-17T04:24:04.713Z,983.67
2023-03-17T04:25:04.714Z,983.64
2023-03-17T04:26:04.813Z,983.61
2023-03-17T04:27:06.133Z,983.59
2023-03-17T04:28:04.682Z,983.56
2023-03-17T04:29:04.688Z,983.53
2023-03-17T04:30:04.658Z,983.53
2023-03-17T04:31:04.880Z,983.53
2023-03-17T04:32:04.639Z,983.54
2023-03-17T04:33:04.655Z,983.55
2023-03-17T04:34:04.625Z,983.55
2023-03-17T04:35:04.611Z,983.55
2023-03-17T04:36:04.614Z,983.53
2023-03-17T04:37:04.599Z,983.51
2023-03-17T04:38:04.578Z,983.49
2023-03-17T04:39:04.555Z,983.49
2023-03-17T04:40:04.560Z,983.49
2023-03-17T04:41:04.566Z,983.49
2023-03-17T04:42:04.560Z,983.49
2023-03-17T04:43:04.569Z,983.48
2023-03-17T04:44:04.563Z,983.47
2023-03-17T04:45:04.500Z,983.47
2023-03-17T04:46:04.541Z,983.48
2023-03-17T04:47:04.505Z,983.48
2023-03-17T04:48:04.513Z,983.46
2023-03-17T04:49:04.492Z,983.44
2023-03-17T04:50:04.478Z,983.41
2023-03-17T04:51:04.436Z,983.39
2023-03-17T04:52:04.429Z,983.36
2023-03-17T04:53:04.427Z,983.34
2023-03-17T04:54:04.417Z,983.31
2023-03-17T04:55:04.420Z,983.28
2023-03-17T04:56:04.398Z,983.27
2023-03-17T04:57:04.380Z,983.26
2023-03-17T04:58:04.385Z,983.25
2023-03-17T04:59:04.366Z,983.25
2023-03-17T05:00:04.352Z,983.26
2023-03-17T05:01:04.417Z,983.27
2023-03-17T05:02:04.374Z,983.26
2023-03-17T05:03:07.107Z,983.29
2023-03-17T05:04:04.341Z,983.30
2023-03-17T05:05:04.298Z,983.31
2023-03-17T05:06:04.291Z,983.33
2023-03-17T05:07:04.296Z,983.34
2023-03-17T05:08:04.272Z,983.34
2023-03-17T05:09:04.267Z,983.36
2023-03-17T05:10:04.283Z,983.37
2023-03-17T05:11:04.236Z,983.38
2023-03-17T05:12:04.233Z,983.37
2023-03-17T05:13:04.215Z,983.36
2023-03-17T05:14:04.268Z,983.36
2023-03-17T05:15:04.233Z,983.36
2023-03-17T05:16:04.186Z,983.38
2023-03-17T05:17:04.187Z,983.40
2023-03-17T05:18:05.077Z,983.43
2023-03-17T05:19:04.154Z,983.46
2023-03-17T05:20:04.136Z,983.49
2023-03-17T05:21:04.120Z,983.52
2023-03-17T05:22:04.131Z,983.56
2023-03-17T05:23:04.117Z,983.60
2023-03-17T05:24:04.132Z,983.64
2023-03-17T05:25:04.084Z,983.65
2023-03-17T05:26:04.099Z,983.64
2023-03-17T05:27:04.064Z,983.62
2023-03-17T05:28:04.057Z,983.60
2023-03-17T05:29:04.080Z,983.58
2023-03-17T05:30:04.045Z,983.55
2023-03-17T05:31:04.124Z,983.51
2023-03-17T05:32:04.017Z,983.46
2023-03-17T05:33:04.156Z,983.40
2023-03-17T05:34:04.000Z,983.34
2023-03-17T05:35:04.039Z,983.30
2023-03-17T05:36:04.052Z,983.28
2023-03-17T05:37:03.968Z,983.27
2023-03-17T05:38:03.949Z,983.26
2023-03-17T05:39:03.942Z,983.24
2023-03-17T05:40:03.955Z,983.22
2023-03-17T05:41:03.910Z,983.20
2023-03-17T05:42:03.921Z,983.17
2023-03-17T05:43:03.905Z,983.15
2023-03-17T05:44:03.901Z,983.16
2023-03-17T05:45:03.888Z,983.17
2023-03-17T05:46:04.016Z,983.17
2023-03-17T05:47:03.858Z,983.18
2023-03-17T05:48:03.871Z,983.19
2023-03-17T05:49:03.868Z,983.20
2023-03-17T05:50:03.837Z,983.22
2023-03-17T05:51:03.843Z,983.23
2023-03-17T05:52:03.822Z,983.25
2023-03-17T05:53:03.819Z,983.27
2023-03-17T05:54:03.792Z,983.28
2023-03-17T05:55:03.768Z,983.27
2023-03-17T05:56:03.822Z,983.27
2023-03-17T05:57:03.771Z,983.26
2023-03-17T05:58:03.752Z,983.26
2023-03-17T05:59:03.749Z,983.26
2023-03-17T06:00:03.721Z,983.24
2023-03-17T06:01:03.742Z,983.24
2023-03-17T06:02:03.827Z,983.25
2023-03-17T06:03:03.714Z,983.27
2023-03-17T06:04:03.698Z,983.31
2023-03-17T06:05:03.714Z,983.36
2023-03-17T06:06:03.679Z,983.37
2023-03-17T06:07:03.656Z,983.37
2023-03-17T06:08:03.665Z,983.37
2023-03-17T06:09:03.652Z,983.36
2023-03-17T06:10:03.628Z,983.39
2023-03-17T06:11:03.654Z,983.41
2023-03-17T06:12:03.606Z,983.46
2023-03-17T06:13:04.173Z,983.49
2023-03-17T06:14:03.571Z,983.51
2023-03-17T06:15:03.598Z,983.49
2023-03-17T06:16:03.582Z,983.47
2023-03-17T06:17:03.540Z,983.44
2023-03-17T06:18:03.555Z,983.41
2023-03-17T06:19:03.581Z,983.38
2023-03-17T06:20:03.549Z,983.35
2023-03-17T06:21:03.527Z,983.33
2023-03-17T06:22:03.495Z,983.31
2023-03-17T06:23:05.635Z,983.30
2023-03-17T06:24:03.499Z,983.30
2023-03-17T06:25:03.528Z,983.31
2023-03-17T06:26:03.456Z,983.32
2023-03-17T06:27:03.500Z,983.33
2023-03-17T06:28:03.438Z,983.34
2023-03-17T06:29:03.537Z,983.35
2023-03-17T06:30:03.462Z,983.35
2023-03-17T06:31:06.043Z,983.38
2023-03-17T06:32:18.923Z,983.39
2023-03-17T06:33:03.505Z,983.41
2023-03-17T06:34:03.369Z,983.45
2023-03-17T06:35:03.397Z,983.50
2023-03-17T06:36:03.594Z,983.54
2023-03-17T06:37:03.344Z,983.57
2023-03-17T06:38:03.318Z,983.60
2023-03-17T06:39:03.325Z,983.61
2023-03-17T06:40:03.310Z,983.63
2023-03-17T06:41:03.327Z,983.63
2023-03-17T06:42:05.329Z,983.64
2023-03-17T06:43:03.296Z,983.64
2023-03-17T06:44:03.295Z,983.63
2023-03-17T06:45:03.272Z,983.63
2023-03-17T06:46:03.298Z,983.63
2023-03-17T06:47:03.278Z,983.62
2023-03-17T06:48:03.245Z,983.62
2023-03-17T06:49:03.238Z,983.64
2023-03-17T06:50:03.206Z,983.63
2023-03-17T06:51:03.222Z,983.63
2023-03-17T06:52:03.219Z,983.63
2023-03-17T06:53:03.185Z,983.64
2023-03-17T06:54:03.170Z,983.63
2023-03-17T06:55:03.176Z,983.61
2023-03-17T06:56:03.135Z,983.58
2023-03-17T06:57:03.132Z,983.55
2023-03-17T06:58:03.172Z,983.53
2023-03-17T06:59:03.126Z,983.50
2023-03-17T07:00:03.124Z,983.50
2023-03-17T07:01:03.113Z,983.51
2023-03-17T07:02:03.168Z,983.51
2023-03-17T07:03:03.119Z,983.51
2023-03-17T07:04:03.064Z,983.50
2023-03-17T07:05:03.189Z,983.50
2023-03-17T07:06:03.080Z,983.50
2023-03-17T07:07:03.040Z,983.50
2023-03-17T07:08:03.037Z,983.49
2023-03-17T07:09:03.049Z,983.47
2023-03-17T07:10:03.012Z,983.43
2023-03-17T07:11:03.007Z,983.40
2023-03-17T07:12:03.000Z,983.38
2023-03-17T07:13:03.030Z,983.37
2023-03-17T07:14:02.955Z,983.36
2023-03-17T07:15:03.086Z,983.37
2023-03-17T07:16:03.040Z,983.39
2023-03-17T07:17:02.930Z,983.40
2023-03-17T07:18:02.914Z,983.42
2023-03-17T07:19:02.922Z,983.41
2023-03-17T07:20:02.897Z,983.41
2023-03-17T07:21:02.962Z,983.42
2023-03-17T07:22:02.900Z,983.45
2023-03-17T07:23:02.879Z,983.47
2023-03-17T07:24:02.868Z,983.48
2023-03-17T07:25:02.860Z,983.49
2023-03-17T07:26:02.840Z,983.47
2023-03-17T07:27:02.884Z,983.46
2023-03-17T07:28:02.826Z,983.42
2023-03-17T07:29:02.833Z,983.39
2023-03-17T07:30:02.791Z,983.37
2023-03-17T07:31:02.829Z,983.36
2023-03-17T07:32:02.787Z,983.38
2023-03-17T07:33:02.863Z,983.38
2023-03-17T07:34:02.754Z,983.39
2023-03-17T07:35:02.751Z,983.38
2023-03-17T07:36:02.763Z,983.37
2023-03-17T07:37:02.760Z,983.35
2023-03-17T07:38:02.722Z,983.34
2023-03-17T07:39:02.966Z,983.32
2023-03-17T07:40:02.690Z,983.29
2023-03-17T07:41:02.705Z,983.28
2023-03-17T07:42:02.677Z,983.30
2023-03-17T07:43:02.668Z,983.35
2023-03-17T07:44:02.665Z,983.38
2023-03-17T07:45:02.699Z,983.40
2023-03-17T07:46:05.116Z,983.41
2023-03-17T07:47:02.657Z,983.40
2023-03-17T07:48:02.625Z,983.39
2023-03-17T07:49:02.610Z,983.36
2023-03-17T07:50:02.628Z,983.34
2023-03-17T07:51:02.648Z,983.31
2023-03-17T07:52:02.581Z,983.29
2023-03-17T07:53:02.563Z,983.27
2023-03-17T07:54:02.563Z,983.26
2023-03-17T07:55:02.585Z,983.23
2023-03-17T07:56:02.542Z,983.22
2023-03-17T07:57:02.541Z,983.22
2023-03-17T07:58:02.621Z,983.21
2023-03-17T07:59:02.495Z,983.20
2023-03-17T08:00:02.521Z,983.20
2023-03-17T08:01:02.527Z,983.19
2023-03-17T08:02:02.544Z,983.19
2023-03-17T08:03:10.331Z,983.16
2023-03-17T08:04:02.555Z,983.17
2023-03-17T08:05:02.479Z,983.18
2023-03-17T08:06:02.474Z,983.19
2023-03-17T08:07:02.452Z,983.21
2023-03-17T08:08:02.449Z,983.21
2023-03-17T08:09:02.426Z,983.20
2023-03-17T08:10:02.430Z,983.16
2023-03-17T08:11:02.385Z,983.14
2023-03-17T08:12:02.393Z,983.12
2023-03-17T08:13:02.398Z,983.12
2023-03-17T08:14:02.347Z,983.12
2023-03-17T08:15:02.349Z,983.10
2023-03-17T08:16:02.331Z,983.08
2023-03-17T08:17:02.419Z,983.09
2023-03-17T08:18:02.346Z,983.07
2023-03-17T08:19:02.300Z,983.06
2023-03-17T08:20:02.315Z,983.05
2023-03-17T08:21:02.301Z,983.06
2023-03-17T08:22:02.297Z,983.07
2023-03-17T08:23:02.256Z,983.07
2023-03-17T08:24:02.286Z,983.07
2023-03-17T08:25:02.259Z,983.05
2023-03-17T08:26:02.226Z,983.04
2023-03-17T08:27:02.249Z,983.02
2023-03-17T08:28:02.258Z,983.04
2023-03-17T08:29:02.204Z,983.04
2023-03-17T08:30:02.209Z,983.05
2023-03-17T08:31:02.238Z,983.06
2023-03-17T08:32:02.223Z,983.06
2023-03-17T08:33:02.274Z,983.06
2023-03-17T08:34:02.152Z,983.04
2023-03-17T08:35:02.144Z,983.03
2023-03-17T08:36:02.172Z,983.02
2023-03-17T08:37:02.112Z,983.01
2023-03-17T08:38:02.132Z,983.01
2023-03-17T08:39:02.107Z,983.02
2023-03-17T08:40:02.102Z,983.04
2023-03-17T08:41:02.093Z,983.04
2023-03-17T08:42:02.062Z,983.04
2023-03-17T08:43:02.046Z,983.02
2023-03-17T08:44:02.120Z,983.01
2023-03-17T08:45:02.055Z,983.00
2023-03-17T08:46:02.006Z,983.00
2023-03-17T08:47:02.068Z,982.99
2023-03-17T08:48:01.997Z,982.98
2023-03-17T08:49:02.057Z,982.96
2023-03-17T08:50:02.000Z,982.94
2023-03-17T08:51:01.987Z,982.91
2023-03-17T08:52:01.990Z,982.89
2023-03-17T08:53:01.971Z,982.88
2023-03-17T08:54:01.968Z,982.89
2023-03-17T08:55:01.993Z,982.87
2023-03-17T08:56:01.947Z,982.87
2023-03-17T08:57:02.036Z,982.88
2023-03-17T08:58:01.953Z,982.88
2023-03-17T08:59:01.896Z,982.87
2023-03-17T09:00:01.870Z,982.87
2023-03-17T09:01:01.961Z,982.87
2023-03-17T09:02:01.855Z,982.87
2023-03-17T09:03:01.902Z,982.84
2023-03-17T09:04:01.836Z,982.83
2023-03-17T09:05:01.841Z,982.80
2023-03-17T09:06:01.831Z,982.79
2023-03-17T09:07:04.110Z,982.77
2023-03-17T09:08:01.849Z,982.79
2023-03-17T09:09:01.800Z,982.78
2023-03-17T09:10:01.798Z,982.76
2023-03-17T09:11:01.768Z,982.76
2023-03-17T09:12:01.790Z,982.74
2023-03-17T09:13:01.746Z,982.73
2023-03-17T09:14:01.731Z,982.74
2023-03-17T09:15:01.764Z,982.72
2023-03-17T09:16:01.736Z,982.70
2023-03-17T09:17:02.527Z,982.67
2023-03-17T09:18:01.737Z,982.65
2023-03-17T09:19:01.747Z,982.62
2023-03-17T09:20:01.683Z,982.61
2023-03-17T09:21:01.678Z,982.59
2023-03-17T09:22:01.668Z,982.61
2023-03-17T09:23:01.641Z,982.62
2023-03-17T09:24:02.696Z,982.64
2023-03-17T09:25:01.634Z,982.66
2023-03-17T09:26:01.656Z,982.66
2023-03-17T09:27:01.601Z,982.67
2023-03-17T09:28:01.610Z,982.68
2023-03-17T09:29:03.770Z,982.68
2023-03-17T09:30:01.564Z,982.67
2023-03-17T09:31:01.658Z,982.65
2023-03-17T09:32:01.536Z,982.63
2023-03-17T09:33:01.629Z,982.62
2023-03-17T09:34:01.526Z,982.60
2023-03-17T09:35:01.553Z,982.59
2023-03-17T09:36:01.563Z,982.60
2023-03-17T09:37:01.504Z,982.62
2023-03-17T09:38:01.490Z,982.61
2023-03-17T09:39:01.480Z,982.63
2023-03-17T09:40:01.474Z,982.64
2023-03-17T09:41:01.464Z,982.66
2023-03-17T09:42:01.436Z,982.62
2023-03-17T09:43:01.460Z,982.62
2023-03-17T09:44:01.471Z,982.63
2023-03-17T09:45:01.408Z,982.67
2023-03-17T09:46:01.398Z,982.69
2023-03-17T09:47:01.410Z,982.71
2023-03-17T09:48:01.367Z,982.69
2023-03-17T09:49:01.478Z,982.69
2023-03-17T09:50:01.379Z,982.68
2023-03-17T09:51:01.364Z,982.65
2023-03-17T09:52:01.334Z,982.64
2023-03-17T09:53:03.861Z,982.60
2023-03-17T09:54:01.371Z,982.59
2023-03-17T09:55:01.308Z,982.59
2023-03-17T09:56:01.297Z,982.61
2023-03-17T09:57:01.287Z,982.61
2023-03-17T09:58:01.288Z,982.61
2023-03-17T09:59:01.278Z,982.61
2023-03-17T10:00:01.300Z,982.63
2023-03-17T10:01:01.252Z,982.63
2023-03-17T10:02:01.296Z,982.61
2023-03-17T10:03:01.227Z,982.57
2023-03-17T10:04:01.220Z,982.55
2023-03-17T10:05:01.323Z,982.52
2023-03-17T10:06:01.196Z,982.50
2023-03-17T10:07:01.185Z,982.47
2023-03-17T10:08:01.156Z,982.45
2023-03-17T10:09:01.168Z,982.42
2023-03-17T10:10:01.164Z,982.41
2023-03-17T10:11:01.182Z,982.38
2023-03-17T10:12:01.143Z,982.39
2023-03-17T10:13:01.142Z,982.39
2023-03-17T10:14:01.129Z,982.38
2023-03-17T10:15:01.111Z,982.39
2023-03-17T10:16:01.173Z,982.37
2023-03-17T10:17:01.088Z,982.36
2023-03-17T10:18:01.074Z,982.35
2023-03-17T10:19:01.062Z,982.34
2023-03-17T10:20:01.052Z,982.32
2023-03-17T10:21:01.046Z,982.29
2023-03-17T10:22:01.057Z,982.27
2023-03-17T10:23:01.001Z,982.25
2023-03-17T10:24:01.005Z,982.25
2023-03-17T10:25:03.466Z,982.27
2023-03-17T10:26:00.994Z,982.25
2023-03-17T10:27:00.975Z,982.26
2023-03-17T10:28:00.968Z,982.27
2023-03-17T10:29:01.014Z,982.23
2023-03-17T10:30:00.988Z,982.18
2023-03-17T10:31:00.937Z,982.15
2023-03-17T10:32:01.016Z,982.11
2023-03-17T10:33:00.988Z,982.08
2023-03-17T10:34:00.941Z,982.04
2023-03-17T10:35:00.954Z,982.04
2023-03-17T10:36:00.967Z,982.03
2023-03-17T10:37:00.879Z,982.04
2023-03-17T10:38:13.833Z,982.03
2023-03-17T10:39:00.853Z,982.03
2023-03-17T10:40:00.865Z,982.02
2023-03-17T10:41:00.845Z,981.99
2023-03-17T10:42:00.831Z,982.00
2023-03-17T10:43:00.815Z,982.01
2023-03-17T10:44:00.829Z,982.03
2023-03-17T10:45:00.816Z,982.01
2023-03-17T10:46:00.805Z,981.97
2023-03-17T10:47:01.082Z,981.96
2023-03-17T10:48:00.775Z,981.97
2023-03-17T10:49:00.754Z,981.97
2023-03-17T10:50:00.747Z,981.96
2023-03-17T10:51:00.762Z,981.96
2023-03-17T10:52:00.726Z,981.96
2023-03-17T10:53:00.804Z,981.97
2023-03-17T10:54:00.698Z,981.97
2023-03-17T10:55:00.699Z,981.97
2023-03-17T10:56:00.682Z,981.97
2023-03-17T10:57:00.674Z,981.96
2023-03-17T10:58:00.652Z,981.94
2023-03-17T10:59:00.704Z,981.94
2023-03-17T11:00:00.641Z,981.93
2023-03-17T11:01:00.671Z,981.94
2023-03-17T11:02:00.619Z,981.93
2023-03-17T11:03:00.600Z,981.90
2023-03-17T11:04:00.643Z,981.87
2023-03-17T11:05:00.579Z,981.84
2023-03-17T11:06:00.590Z,981.82
2023-03-17T11:07:00.572Z,981.82
2023-03-17T11:08:00.574Z,981.82
2023-03-17T11:09:00.546Z,981.85
2023-03-17T11:10:00.561Z,981.83
2023-03-17T11:11:00.526Z,981.81
2023-03-17T11:12:00.519Z,981.80
2023-03-17T11:13:00.537Z,981.80
2023-03-17T11:14:00.498Z,981.79
2023-03-17T11:15:00.503Z,981.79
2023-03-17T11:16:00.495Z,981.79
2023-03-17T11:17:00.455Z,981.78
2023-03-17T11:18:00.467Z,981.79
2023-03-17T11:19:00.449Z,981.78
2023-03-17T11:20:00.507Z,981.77
2023-03-17T11:21:00.419Z,981.76
2023-03-17T11:22:00.416Z,981.75
2023-03-17T11:23:00.402Z,981.73
2023-03-17T11:24:00.390Z,981.70
2023-03-17T11:25:00.384Z,981.67
2023-03-17T11:26:00.418Z,981.65
2023-03-17T11:27:00.369Z,981.64
2023-03-17T11:28:00.348Z,981.64
2023-03-17T11:29:00.344Z,981.65
2023-03-17T11:30:00.349Z,981.65
2023-03-17T11:31:00.330Z,981.64
2023-03-17T11:32:00.505Z,981.64
2023-03-17T11:33:00.390Z,981.64
2023-03-17T11:34:00.290Z,981.65
2023-03-17T11:35:00.276Z,981.66
2023-03-17T11:36:00.342Z,981.66
2023-03-17T11:37:00.283Z,981.65
2023-03-17T11:38:00.257Z,981.66
2023-03-17T11:39:00.222Z,981.65
2023-03-17T11:40:00.223Z,981.64
2023-03-17T11:41:00.226Z,981.64
2023-03-17T11:42:00.195Z,981.64
2023-03-17T11:43:00.226Z,981.63
2023-03-17T11:44:00.182Z,981.62
2023-03-17T11:45:00.176Z,981.61
2023-03-17T11:46:00.264Z,981.59
2023-03-17T11:47:00.184Z,981.58
2023-03-17T11:48:01.082Z,981.57
2023-03-17T11:49:00.151Z,981.55
2023-03-17T11:50:00.211Z,981.54
2023-03-17T11:51:00.112Z,981.51
2023-03-17T11:52:00.119Z,981.48
2023-03-17T11:53:00.109Z,981.48
2023-03-17T11:54:00.102Z,981.47
2023-03-17T11:55:00.266Z,981.47
2023-03-17T11:56:00.079Z,981.45
2023-03-17T11:57:00.119Z,981.47
2023-03-17T11:58:00.061Z,981.48
2023-03-17T11:59:00.041Z,981.45
2023-03-17T12:00:00.042Z,981.43
2023-03-17T12:01:00.012Z,981.41
2023-03-17T12:01:59.998Z,981.38
2023-03-17T12:02:59.981Z,981.37
2023-03-17T12:04:00.115Z,981.37
2023-03-17T12:04:59.950Z,981.36
2023-03-17T12:05:59.952Z,981.36
2023-03-17T12:06:59.946Z,981.36
2023-03-17T12:07:59.932Z,981.37
2023-03-17T12:08:59.969Z,981.38
2023-03-17T12:09:59.955Z,981.38
2023-03-17T12:10:59.899Z,981.38
2023-03-17T12:11:59.927Z,981.39
2023-03-17T12:12:59.899Z,981.40
2023-03-17T12:13:59.882Z,981.41
2023-03-17T12:14:59.897Z,981.40
2023-03-17T12:16:00.006Z,981.40
2023-03-17T12:16:59.852Z,981.40
2023-03-17T12:17:59.831Z,981.37
2023-03-17T12:18:59.805Z,981.36
2023-03-17T12:19:59.813Z,981.35
2023-03-17T12:20:59.821Z,981.35
2023-03-17T12:21:59.807Z,981.34
2023-03-17T12:22:59.780Z,981.34
2023-03-17T12:23:59.775Z,981.32
2023-03-17T12:24:59.754Z,981.33
2023-03-17T12:25:59.979Z,981.31
2023-03-17T12:26:59.725Z,981.30
2023-03-17T12:27:59.719Z,981.29